createdAt,value
2022-09-28T00:00:01.054Z,48.2
2022-09-28T00:01:11.219Z,47.4
2022-09-28T00:02:01.598Z,47.6
2022-09-28T00:03:04.035Z,47.4
2022-09-28T00:04:01.297Z,47.4
2022-09-28T00:05:01.702Z,47.4
2022-09-28T00:06:14.787Z,47.6
2022-09-28T00:07:04.992Z,47.4
2022-09-28T00:08:01.697Z,47.1
2022-09-28T00:09:01.090Z,47.3
2022-09-28T00:10:01.089Z,48
2022-09-28T00:11:16.641Z,48.8
2022-09-28T00:12:02.219Z,48.3
2022-09-28T00:13:01.869Z,48.2
2022-09-28T00:14:01.941Z,48.8
2022-09-28T00:15:00.495Z,49.6
2022-09-28T00:16:00.290Z,49
2022-09-28T00:16:59.986Z,48.8
2022-09-28T00:17:59.651Z,49.4
2022-09-28T00:19:01.837Z,49.6
2022-09-28T00:20:01.732Z,49.4
2022-09-28T00:21:01.299Z,48.3
2022-09-28T00:22:01.121Z,48.6
2022-09-28T00:23:01.149Z,49.3
2022-09-28T00:24:01.185Z,49.5
2022-09-28T00:25:01.363Z,49.6
2022-09-28T00:26:01.833Z,49.5
2022-09-28T00:27:01.153Z,49.6
2022-09-28T00:28:01.186Z,48.7
2022-09-28T00:29:01.072Z,49.1
2022-09-28T00:30:01.059Z,49.6
2022-09-28T00:31:01.087Z,49.2
2022-09-28T00:32:01.166Z,48.5
2022-09-28T00:33:01.085Z,49.3
2022-09-28T00:34:01.712Z,49.6
2022-09-28T00:35:01.452Z,49.6
2022-09-28T00:36:01.579Z,49.6
2022-09-28T00:37:00.802Z,48.9
2022-09-28T00:38:00.508Z,48.1
2022-09-28T00:39:00.190Z,48.7
2022-09-28T00:39:59.878Z,49.4
2022-09-28T00:40:59.737Z,49.4
2022-09-28T00:42:04.499Z,49.6
2022-09-28T00:43:01.394Z,49.6
2022-09-28T00:44:02.330Z,48.3
2022-09-28T00:45:02.162Z,48.9
2022-09-28T00:46:02.121Z,49.5
2022-09-28T00:47:01.082Z,49.5
2022-09-28T00:48:01.082Z,49.6
2022-09-28T00:49:01.082Z,49.7
2022-09-28T00:50:01.088Z,49.5
2022-09-28T00:51:01.096Z,49.5
2022-09-28T00:52:01.510Z,49.5
2022-09-28T00:53:01.212Z,50
2022-09-28T00:54:01.110Z,49.5
2022-09-28T00:55:01.121Z,49.7
2022-09-28T00:56:01.128Z,51
2022-09-28T00:57:01.138Z,51.5
2022-09-28T00:58:01.140Z,51.1
2022-09-28T00:59:01.214Z,51.2
2022-09-28T01:00:01.260Z,50.8
2022-09-28T01:01:01.342Z,50.5
2022-09-28T01:02:01.148Z,51.1
2022-09-28T01:03:01.091Z,51.6
2022-09-28T01:04:01.068Z,51
2022-09-28T01:05:01.097Z,50.6
2022-09-28T01:06:01.049Z,51.4
2022-09-28T01:07:01.116Z,51.3
2022-09-28T01:08:01.103Z,52.1
2022-09-28T01:09:01.444Z,51.8
2022-09-28T01:10:04.548Z,51.7
2022-09-28T01:11:01.509Z,51.6
2022-09-28T01:12:02.625Z,51.5
2022-09-28T01:13:01.307Z,52.5
2022-09-28T01:14:02.490Z,52.1
2022-09-28T01:15:02.675Z,51.5
2022-09-28T01:16:01.365Z,51.5
2022-09-28T01:17:01.194Z,52.4
2022-09-28T01:18:01.371Z,52.4
2022-09-28T01:19:04.107Z,51.8
2022-09-28T01:20:01.057Z,52.6
2022-09-28T01:21:01.046Z,52.6
2022-09-28T01:22:01.120Z,52.1
2022-09-28T01:23:03.792Z,52.2
2022-09-28T01:24:01.099Z,53.3
2022-09-28T01:25:01.113Z,53.8
2022-09-28T01:26:01.126Z,53.5
2022-09-28T01:27:00.812Z,53.4
2022-09-28T01:28:00.424Z,53.2
2022-09-28T01:29:00.095Z,53.5
2022-09-28T01:29:59.623Z,54.3
2022-09-28T01:31:01.597Z,54.4
2022-09-28T01:32:04.355Z,54
2022-09-28T01:33:01.744Z,54.5
2022-09-28T01:34:01.787Z,54.3
2022-09-28T01:35:04.416Z,53.2
2022-09-28T01:36:04.515Z,53.5
2022-09-28T01:37:06.442Z,54
2022-09-28T01:38:01.093Z,54.4
2022-09-28T01:39:01.053Z,53.7
2022-09-28T01:40:01.717Z,53.7
2022-09-28T01:41:01.116Z,54
2022-09-28T01:42:10.000Z,53.8
2022-09-28T01:43:02.369Z,53.9
2022-09-28T01:44:00.726Z,53.4
2022-09-28T01:45:00.303Z,53.3
2022-09-28T01:45:59.999Z,53.2
2022-09-28T01:47:13.162Z,53.1
2022-09-28T01:48:01.580Z,52.8
2022-09-28T01:49:01.032Z,52.6
2022-09-28T01:50:01.484Z,51.3
2022-09-28T01:51:01.072Z,51.2
2022-09-28T01:52:01.057Z,51.7
2022-09-28T01:53:01.099Z,52
2022-09-28T01:54:01.096Z,52.1
2022-09-28T01:55:01.041Z,51.6
2022-09-28T01:56:01.042Z,51.3
2022-09-28T01:57:01.112Z,52
2022-09-28T01:58:01.048Z,52.2
2022-09-28T01:59:01.053Z,51.5
2022-09-28T02:00:16.431Z,50.8
2022-09-28T02:01:01.218Z,50.8
2022-09-28T02:02:02.045Z,51.5
2022-09-28T02:03:02.599Z,50.6
2022-09-28T02:04:01.439Z,50.6
2022-09-28T02:05:01.170Z,51.4
2022-09-28T02:06:01.076Z,51.9
2022-09-28T02:07:01.045Z,52.3
2022-09-28T02:08:01.076Z,51.7
2022-09-28T02:09:01.097Z,51.7
2022-09-28T02:10:01.108Z,51.9
2022-09-28T02:11:01.323Z,51.9
2022-09-28T02:12:01.117Z,51.8
2022-09-28T02:13:01.144Z,52.3
2022-09-28T02:14:01.243Z,52.2
2022-09-28T02:15:01.133Z,51.1
2022-09-28T02:16:01.228Z,49.9
2022-09-28T02:17:01.145Z,49.3
2022-09-28T02:18:01.157Z,49.3
2022-09-28T02:19:01.588Z,49.8
2022-09-28T02:20:00.798Z,49.3
2022-09-28T02:21:00.439Z,50
2022-09-28T02:22:00.032Z,50.3
2022-09-28T02:22:59.762Z,49.8
2022-09-28T02:24:01.749Z,49.3
2022-09-28T02:25:01.761Z,49.2
2022-09-28T02:26:02.019Z,48.4
2022-09-28T02:27:01.041Z,48.7
2022-09-28T02:28:01.058Z,48.8
2022-09-28T02:29:01.120Z,48.6
2022-09-28T02:30:01.336Z,48.7
2022-09-28T02:31:01.340Z,48.8
2022-09-28T02:32:01.656Z,48.5
2022-09-28T02:33:01.471Z,48.8
2022-09-28T02:34:02.501Z,49
2022-09-28T02:37:01.042Z,49.1
2022-09-28T02:38:01.074Z,49.1
2022-09-28T02:39:01.754Z,48.8
2022-09-28T02:40:01.189Z,48.4
2022-09-28T02:41:03.936Z,48.6
2022-09-28T02:42:02.254Z,49.1
2022-09-28T02:43:01.101Z,49.1
2022-09-28T02:44:01.115Z,49.2
2022-09-28T02:45:01.751Z,49.7
2022-09-28T02:46:01.198Z,49.8
2022-09-28T02:47:01.125Z,49.4
2022-09-28T02:48:01.523Z,49.7
2022-09-28T02:49:20.475Z,49.8
2022-09-28T02:50:01.168Z,49.7
2022-09-28T02:51:01.887Z,50.1
2022-09-28T02:52:02.020Z,50.3
2022-09-28T02:53:01.194Z,50.4
2022-09-28T02:54:01.503Z,50.8
2022-09-28T02:55:01.281Z,50.8
2022-09-28T02:56:01.451Z,50.9
2022-09-28T02:57:01.273Z,51.1
2022-09-28T02:58:01.108Z,51
2022-09-28T02:59:01.114Z,50.8
2022-09-28T03:00:01.063Z,51
2022-09-28T03:01:01.180Z,51.3
2022-09-28T03:02:01.156Z,51.6
2022-09-28T03:03:01.052Z,51.6
2022-09-28T03:04:01.450Z,51.5
2022-09-28T03:05:01.716Z,51.1
2022-09-28T03:06:01.525Z,51.4
2022-09-28T03:07:02.150Z,51.5
2022-09-28T03:08:02.705Z,51.8
2022-09-28T03:09:01.063Z,52.1
2022-09-28T03:10:01.210Z,52.4
2022-09-28T03:12:33.476Z,52.7
2022-09-28T03:13:05.283Z,52.6
2022-09-28T03:14:02.200Z,52.9
2022-09-28T03:15:01.172Z,52.9
2022-09-28T03:16:01.172Z,53.3
2022-09-28T03:17:01.130Z,53.8
2022-09-28T03:18:08.556Z,54.2
2022-09-28T03:19:01.224Z,55
2022-09-28T03:20:01.978Z,55.3
2022-09-28T03:21:01.346Z,55.7
2022-09-28T03:22:01.044Z,55.7
2022-09-28T03:23:26.128Z,56
2022-09-28T03:24:01.279Z,56
2022-09-28T03:25:02.064Z,55.2
2022-09-28T03:26:03.153Z,55
2022-09-28T03:27:01.873Z,55.3
2022-09-28T03:28:13.702Z,55.6
2022-09-28T03:29:01.063Z,55.8
2022-09-28T03:30:07.821Z,55.5
2022-09-28T03:31:01.114Z,55.6
2022-09-28T03:32:01.174Z,55
2022-09-28T03:33:15.607Z,54.7
2022-09-28T03:34:01.520Z,54.7
2022-09-28T03:35:01.703Z,54.4
2022-09-28T03:36:01.710Z,54.4
2022-09-28T03:37:01.155Z,55
2022-09-28T03:38:01.065Z,54.9
2022-09-28T03:39:00.684Z,55.1
2022-09-28T03:40:00.297Z,55
2022-09-28T03:41:00.350Z,55.2
2022-09-28T03:42:00.161Z,55.8
2022-09-28T03:42:59.872Z,56.2
2022-09-28T03:44:02.179Z,55.5
2022-09-28T03:45:01.563Z,55.3
2022-09-28T03:46:01.262Z,55
2022-09-28T03:47:01.057Z,54.8
2022-09-28T03:48:01.034Z,54.4
2022-09-28T03:49:01.037Z,53.9
2022-09-28T03:50:01.137Z,54.2
2022-09-28T03:51:01.342Z,54.3
2022-09-28T03:52:01.329Z,54.1
2022-09-28T03:53:01.349Z,53.8
2022-09-28T03:54:04.121Z,53.3
2022-09-28T03:55:01.932Z,53.2
2022-09-28T03:56:07.854Z,53.8
2022-09-28T03:57:01.083Z,54.2
2022-09-28T03:58:01.077Z,54.1
2022-09-28T03:59:01.711Z,53.8
2022-09-28T04:00:01.696Z,54
2022-09-28T04:01:01.517Z,54.8
2022-09-28T04:02:01.239Z,55.6
2022-09-28T04:03:01.148Z,55.5
2022-09-28T04:04:01.580Z,56.2
2022-09-28T04:05:02.273Z,57.2
2022-09-28T04:06:01.468Z,58
2022-09-28T04:07:01.348Z,58.3
2022-09-28T04:08:01.357Z,58.3
2022-09-28T04:09:02.078Z,58.1
2022-09-28T04:10:02.220Z,58
2022-09-28T04:11:01.065Z,58.3
2022-09-28T04:12:04.280Z,58.7
2022-09-28T04:13:01.089Z,58.8
2022-09-28T04:14:01.097Z,58.6
2022-09-28T04:15:01.078Z,58.2
2022-09-28T04:16:01.597Z,58
2022-09-28T04:17:01.478Z,58.3
2022-09-28T04:18:01.105Z,58.5
2022-09-28T04:19:01.051Z,58.6
2022-09-28T04:20:01.039Z,58.9
2022-09-28T04:21:01.492Z,58.9
2022-09-28T04:22:02.027Z,58.8
2022-09-28T04:23:01.425Z,58.9
2022-09-28T04:24:00.657Z,59.4
2022-09-28T04:25:00.327Z,59.3
2022-09-28T04:26:00.036Z,59.5
2022-09-28T04:26:59.634Z,60.3
2022-09-28T04:28:01.280Z,60.9
2022-09-28T04:29:06.318Z,60.8
2022-09-28T04:30:01.707Z,60.3
2022-09-28T04:31:01.401Z,60.3
2022-09-28T04:32:01.109Z,60.3
2022-09-28T04:33:01.102Z,60.1
2022-09-28T04:34:01.042Z,60.4
2022-09-28T04:35:01.425Z,60.4
2022-09-28T04:36:01.165Z,60.8
2022-09-28T04:37:01.773Z,60.8
2022-09-28T04:38:01.606Z,61.2
2022-09-28T04:39:01.193Z,60.8
2022-09-28T04:40:00.753Z,62.6
2022-09-28T04:41:00.480Z,63.1
2022-09-28T04:42:00.141Z,63.3
2022-09-28T04:42:59.715Z,63.8
2022-09-28T04:44:01.380Z,64.5
2022-09-28T04:45:02.179Z,64.2
2022-09-28T04:46:01.128Z,63.4
2022-09-28T04:47:05.015Z,63.2
2022-09-28T04:48:01.114Z,63.6
2022-09-28T04:49:03.479Z,63.7
2022-09-28T04:50:01.513Z,64.2
2022-09-28T04:51:01.220Z,64.7
2022-09-28T04:52:00.671Z,64.9
2022-09-28T04:53:00.320Z,64.5
2022-09-28T04:54:05.601Z,64.7
2022-09-28T04:55:01.444Z,65.1
2022-09-28T04:56:01.185Z,65.4
2022-09-28T04:57:01.056Z,65.5
2022-09-28T04:58:01.081Z,65.6
2022-09-28T04:59:08.577Z,66.3
2022-09-28T05:00:01.044Z,68.9
2022-09-28T05:01:01.388Z,67.3
2022-09-28T05:02:02.153Z,66.5
2022-09-28T05:03:01.794Z,66.5
2022-09-28T05:04:12.941Z,66
2022-09-28T05:05:01.820Z,65.5
2022-09-28T05:06:01.097Z,66.2
2022-09-28T05:07:01.114Z,66.2
2022-09-28T05:08:01.407Z,66.5
2022-09-28T05:09:15.228Z,66.9
2022-09-28T05:10:01.767Z,67.1
2022-09-28T05:11:02.471Z,66.3
2022-09-28T05:12:02.059Z,66.3
2022-09-28T05:13:02.139Z,66.8
2022-09-28T05:14:16.825Z,67
2022-09-28T05:15:02.265Z,67.5
2022-09-28T05:16:05.474Z,68.4
2022-09-28T05:17:02.328Z,69.1
2022-09-28T05:18:00.852Z,69.1
2022-09-28T05:19:00.484Z,69.6
2022-09-28T05:20:00.504Z,70
2022-09-28T05:21:00.249Z,71.1
2022-09-28T05:21:59.860Z,71.3
2022-09-28T05:23:01.522Z,72.3
2022-09-28T05:24:01.303Z,72.5
2022-09-28T05:25:02.221Z,74.2
2022-09-28T05:26:01.043Z,75.3
2022-09-28T05:27:00.744Z,76.2
2022-09-28T05:28:00.972Z,77.4
2022-09-28T05:29:01.061Z,78.8
2022-09-28T05:30:01.065Z,80.4
2022-09-28T05:31:01.169Z,81.6
2022-09-28T05:32:01.219Z,82.3
2022-09-28T05:33:01.185Z,82.6
2022-09-28T05:34:01.202Z,83.3
2022-09-28T05:35:02.672Z,83.7
2022-09-28T05:36:01.910Z,84.3
2022-09-28T05:37:01.103Z,84.4
2022-09-28T05:38:01.439Z,84.9
2022-09-28T05:39:01.131Z,85
2022-09-28T05:40:01.154Z,85
2022-09-28T05:41:06.315Z,85
2022-09-28T05:42:02.789Z,85.4
2022-09-28T05:43:01.271Z,86.5
2022-09-28T05:44:01.291Z,87.5
2022-09-28T05:45:00.859Z,88.9
2022-09-28T05:46:00.647Z,90.1
2022-09-28T05:47:00.329Z,90.8
2022-09-28T05:48:00.063Z,91.7
2022-09-28T05:48:59.751Z,91.9
2022-09-28T05:50:01.914Z,92.1
2022-09-28T05:51:01.884Z,92.1
2022-09-28T05:52:00.599Z,92.2
2022-09-28T05:53:01.037Z,92.4
2022-09-28T05:54:05.709Z,92.7
2022-09-28T05:55:01.779Z,92.8
2022-09-28T05:56:01.052Z,93.4
2022-09-28T05:57:00.735Z,94
2022-09-28T05:58:00.422Z,94.4
2022-09-28T05:59:00.131Z,94.8
2022-09-28T06:00:00.058Z,95.3
2022-09-28T06:00:59.777Z,95.7
2022-09-28T06:01:59.502Z,95.7
2022-09-28T06:03:03.441Z,95.7
2022-09-28T06:04:01.102Z,95.4
2022-09-28T06:05:01.088Z,95.5
2022-09-28T06:06:01.083Z,95.7
2022-09-28T06:07:01.211Z,95.4
2022-09-28T06:08:01.134Z,95.3
2022-09-28T06:09:01.446Z,95.4
2022-09-28T06:10:01.119Z,95.5
2022-09-28T06:11:01.124Z,95.6
2022-09-28T06:12:01.165Z,95.8
2022-09-28T06:13:01.275Z,95.8
2022-09-28T06:14:01.157Z,95.6
2022-09-28T06:15:01.150Z,94.9
2022-09-28T06:16:01.246Z,95.3
2022-09-28T06:17:01.596Z,94.9
2022-09-28T06:18:01.171Z,95.1
2022-09-28T06:19:01.053Z,94.7
2022-09-28T06:20:01.077Z,94
2022-09-28T06:21:01.080Z,94
2022-09-28T06:22:01.222Z,94.4
2022-09-28T06:23:01.098Z,94.2
2022-09-28T06:24:01.114Z,94.1
2022-09-28T06:25:01.218Z,94.5
2022-09-28T06:26:03.953Z,94.4
2022-09-28T06:27:01.213Z,94.3
2022-09-28T06:28:01.456Z,94.2
2022-09-28T06:29:01.303Z,94.3
2022-09-28T06:30:01.061Z,94.1
2022-09-28T06:31:01.244Z,93.8
2022-09-28T06:32:01.987Z,94
2022-09-28T06:33:01.733Z,94.4
2022-09-28T06:34:02.616Z,94.4
2022-09-28T06:35:01.609Z,94.6
2022-09-28T06:36:01.686Z,94.3
2022-09-28T06:37:01.297Z,93.9
2022-09-28T06:38:01.092Z,93.5
2022-09-28T06:39:01.160Z,93.3
2022-09-28T06:40:05.111Z,93.3
2022-09-28T06:41:01.337Z,92.5
2022-09-28T06:42:01.281Z,91.7
2022-09-28T06:43:01.294Z,91.4
2022-09-28T06:44:01.337Z,91.3
2022-09-28T06:45:06.862Z,91.3
2022-09-28T06:46:01.234Z,91.5
2022-09-28T06:47:01.989Z,91.5
2022-09-28T06:48:01.468Z,91.9
2022-09-28T06:49:01.053Z,90.7
2022-09-28T06:50:10.845Z,90.1
2022-09-28T06:51:01.456Z,89.9
2022-09-28T06:52:01.807Z,90.1
2022-09-28T06:53:01.099Z,90.3
2022-09-28T06:54:01.152Z,89.9
2022-09-28T06:55:14.771Z,88.3
2022-09-28T06:56:01.260Z,89
2022-09-28T06:57:01.139Z,87.6
2022-09-28T06:58:01.137Z,87.6
2022-09-28T06:59:01.252Z,87.8
2022-09-28T07:00:16.718Z,87.3
2022-09-28T07:01:02.301Z,87.4
2022-09-28T07:02:01.212Z,88.4
2022-09-28T07:03:01.062Z,88
2022-09-28T07:04:01.064Z,87.4
2022-09-28T07:05:01.079Z,87
2022-09-28T07:06:01.038Z,86.2
2022-09-28T07:07:01.053Z,85.4
2022-09-28T07:08:01.549Z,82.6
2022-09-28T07:09:21.081Z,82.4
2022-09-28T07:10:01.217Z,81.8
2022-09-28T07:11:01.057Z,80.9
2022-09-28T07:12:01.111Z,80.9
2022-09-28T07:13:01.112Z,81.9
2022-09-28T07:14:01.124Z,79.3
2022-09-28T07:15:01.128Z,80.7
2022-09-28T07:16:01.524Z,81
2022-09-28T07:17:13.639Z,81.9
2022-09-28T07:18:03.506Z,81.4
2022-09-28T07:19:01.689Z,81.2
2022-09-28T07:20:12.525Z,81
2022-09-28T07:21:01.683Z,80.7
2022-09-28T07:22:05.063Z,80.9
2022-09-28T07:23:13.845Z,81.8
2022-09-28T07:24:01.748Z,81.3
2022-09-28T07:25:01.792Z,80.2
2022-09-28T07:26:01.619Z,79.6
2022-09-28T07:27:01.424Z,80.6
2022-09-28T07:28:01.125Z,80.5
2022-09-28T07:29:02.068Z,79.5
2022-09-28T07:30:01.493Z,79.8
2022-09-28T07:31:01.197Z,78.8
2022-09-28T07:32:01.024Z,80.1
2022-09-28T07:33:00.761Z,80.5
2022-09-28T07:34:00.449Z,80.7
2022-09-28T07:35:00.166Z,81.7
2022-09-28T07:35:59.792Z,81.7
2022-09-28T07:37:02.092Z,82
2022-09-28T07:38:01.057Z,82.1
2022-09-28T07:39:01.104Z,82.3
2022-09-28T07:40:01.096Z,83.4
2022-09-28T07:41:00.798Z,83.1
2022-09-28T07:42:03.019Z,83.9
2022-09-28T07:43:01.421Z,84.8
2022-09-28T07:44:01.820Z,86.1
2022-09-28T07:45:01.113Z,86
2022-09-28T07:46:01.521Z,85.5
2022-09-28T07:47:02.233Z,86.4
2022-09-28T07:48:01.858Z,87.4
2022-09-28T07:49:01.961Z,87.6
2022-09-28T07:50:01.153Z,87.5
2022-09-28T07:51:01.270Z,86.5
2022-09-28T07:52:01.558Z,87.2
2022-09-28T07:53:01.589Z,87.7
2022-09-28T07:54:01.415Z,86.5
2022-09-28T07:55:06.592Z,86.2
2022-09-28T07:56:01.140Z,84.3
2022-09-28T07:57:01.118Z,84.2
2022-09-28T07:58:01.105Z,84.4
2022-09-28T07:59:01.117Z,84.8
2022-09-28T08:00:01.152Z,85.1
2022-09-28T08:01:02.100Z,87.6
2022-09-28T08:02:01.402Z,87.8
2022-09-28T08:03:01.526Z,83.8
2022-09-28T08:04:01.250Z,83.6
2022-09-28T08:05:02.372Z,84.4
2022-09-28T08:06:01.239Z,85
2022-09-28T08:07:01.058Z,85.9
2022-09-28T08:08:00.826Z,85.3
2022-09-28T08:09:00.448Z,85.6
2022-09-28T08:10:00.043Z,85.2
2022-09-28T08:10:59.595Z,84.4
2022-09-28T08:12:01.356Z,83.8
2022-09-28T08:13:02.940Z,82.7
2022-09-28T08:14:01.399Z,83.1
2022-09-28T08:15:01.130Z,82.7
2022-09-28T08:16:01.136Z,82.4
2022-09-28T08:17:01.054Z,80.9
2022-09-28T08:18:02.779Z,80.9
2022-09-28T08:19:01.153Z,80.8
2022-09-28T08:20:01.166Z,80.9
2022-09-28T08:21:01.704Z,79.8
2022-09-28T08:22:01.515Z,78.1
2022-09-28T08:23:01.071Z,78.7
2022-09-28T08:24:01.070Z,79.3
2022-09-28T08:25:01.034Z,77.9
2022-09-28T08:26:04.374Z,77.1
2022-09-28T08:27:04.426Z,77.5
2022-09-28T08:28:01.502Z,77.7
2022-09-28T08:29:01.110Z,77.6
2022-09-28T08:30:01.118Z,77.4
2022-09-28T08:31:06.842Z,77.6
2022-09-28T08:32:01.865Z,77.8
2022-09-28T08:33:01.010Z,78.1
2022-09-28T08:34:01.127Z,75.7
2022-09-28T08:35:01.153Z,73.3
2022-09-28T08:36:09.092Z,72
2022-09-28T08:37:01.258Z,72.7
2022-09-28T08:38:01.171Z,71.7
2022-09-28T08:39:01.061Z,71.9
2022-09-28T08:40:01.064Z,72.5
2022-09-28T08:41:11.643Z,72.5
2022-09-28T08:42:02.064Z,72.9
2022-09-28T08:43:01.601Z,73.8
2022-09-28T08:44:01.109Z,75.5
2022-09-28T08:45:01.103Z,76.1
2022-09-28T08:46:14.082Z,76.6
2022-09-28T08:47:01.818Z,76.6
2022-09-28T08:48:01.135Z,78.2
2022-09-28T08:49:23.743Z,79.4
2022-09-28T08:50:01.515Z,80.4
2022-09-28T08:51:01.246Z,80.3
2022-09-28T08:52:01.156Z,80.7
2022-09-28T08:53:01.151Z,83.2
2022-09-28T08:54:01.062Z,84.5
2022-09-28T08:55:01.061Z,84.8
2022-09-28T08:56:01.062Z,86.2
2022-09-28T08:57:01.134Z,85.9
2022-09-28T08:58:01.062Z,86.2
2022-09-28T08:59:01.216Z,86.4
2022-09-28T09:00:01.087Z,86.1
2022-09-28T09:01:01.153Z,86
2022-09-28T09:02:00.971Z,86.6
2022-09-28T09:03:01.127Z,88.4
2022-09-28T09:04:01.099Z,87.3
2022-09-28T09:05:01.166Z,87.7
2022-09-28T09:06:01.394Z,87.4
2022-09-28T09:07:01.551Z,87.6
2022-09-28T09:08:02.076Z,88.4
2022-09-28T09:09:01.173Z,89.4
2022-09-28T09:10:01.153Z,90.1
2022-09-28T09:11:01.879Z,90.6
2022-09-28T09:12:01.462Z,91.2
2022-09-28T09:13:00.421Z,91.1
2022-09-28T09:14:00.036Z,91.1
2022-09-28T09:14:59.678Z,93.1
2022-09-28T09:16:01.922Z,92.9
2022-09-28T09:17:01.349Z,93.5
2022-09-28T09:18:01.941Z,93.5
2022-09-28T09:19:01.498Z,93.8
2022-09-28T09:20:01.224Z,93.9
2022-09-28T09:21:01.133Z,94.4
2022-09-28T09:22:00.718Z,94
2022-09-28T09:23:00.310Z,93.5
2022-09-28T09:23:59.899Z,93.6
2022-09-28T09:24:59.575Z,93.8
2022-09-28T09:26:01.729Z,92.5
2022-09-28T09:27:01.654Z,92.5
2022-09-28T09:28:01.382Z,92.6
2022-09-28T09:29:01.100Z,92.3
2022-09-28T09:30:01.120Z,91.9
2022-09-28T09:31:01.156Z,92.1
2022-09-28T09:32:00.910Z,92
2022-09-28T09:33:01.238Z,90.4
2022-09-28T09:34:01.127Z,90.5
2022-09-28T09:35:01.136Z,91.1
2022-09-28T09:36:01.140Z,90.8
2022-09-28T09:37:00.810Z,90.9
2022-09-28T09:38:00.403Z,91
2022-09-28T09:39:00.009Z,91.7
2022-09-28T09:39:59.708Z,92.2
2022-09-28T09:41:01.422Z,90.8
2022-09-28T09:42:01.062Z,91.2
2022-09-28T09:43:01.070Z,90.4
2022-09-28T09:44:01.069Z,90.5
2022-09-28T09:45:01.106Z,90.2
2022-09-28T09:46:00.843Z,90.4
2022-09-28T09:47:00.582Z,90.6
2022-09-28T09:48:00.263Z,90.8
2022-09-28T09:48:59.981Z,90.2
2022-09-28T09:50:01.031Z,90
2022-09-28T09:51:00.728Z,90.2
2022-09-28T09:52:00.426Z,91
2022-09-28T09:53:00.620Z,90.6
2022-09-28T09:54:00.412Z,90.6
2022-09-28T09:55:00.128Z,90.6
2022-09-28T09:55:59.802Z,90.5
2022-09-28T09:57:01.566Z,91.5
2022-09-28T09:58:01.113Z,91.4
2022-09-28T09:59:01.061Z,91.9
2022-09-28T10:00:01.094Z,92.1
2022-09-28T10:01:01.229Z,92.1
2022-09-28T10:02:00.638Z,92.4
2022-09-28T10:03:00.805Z,92.4
2022-09-28T10:04:00.487Z,92.6
2022-09-28T10:05:00.066Z,92.3
2022-09-28T10:05:59.666Z,91.6
2022-09-28T10:07:01.327Z,91.8
2022-09-28T10:08:01.023Z,92.1
2022-09-28T10:09:01.147Z,92.9
2022-09-28T10:10:01.145Z,93.5
2022-09-28T10:11:01.167Z,94.3
2022-09-28T10:12:01.390Z,94.3
2022-09-28T10:13:01.456Z,94.3
2022-09-28T10:14:01.067Z,94.4
2022-09-28T10:15:01.212Z,94.8
2022-09-28T10:16:01.112Z,94.8
2022-09-28T10:17:04.363Z,94.8
2022-09-28T10:18:01.112Z,95
2022-09-28T10:19:01.099Z,95.8
2022-09-28T10:20:01.984Z,96
2022-09-28T10:21:01.492Z,96
2022-09-28T10:22:06.779Z,96.1
2022-09-28T10:23:02.440Z,97.1
2022-09-28T10:24:01.571Z,97.1
2022-09-28T10:25:01.084Z,97.7
2022-09-28T10:26:01.168Z,98.7
2022-09-28T10:27:09.159Z,99.5
2022-09-28T10:28:00.785Z,99.7
2022-09-28T10:29:00.442Z,99.9
2022-09-28T10:30:00.197Z,99.9
2022-09-28T10:30:59.996Z,99.9
2022-09-28T10:32:11.079Z,99.9
2022-09-28T10:33:01.687Z,99.9
2022-09-28T10:34:02.630Z,99.9
2022-09-28T10:35:01.281Z,99.9
2022-09-28T10:36:01.135Z,99.9
2022-09-28T10:37:13.899Z,99.9
2022-09-28T10:38:01.140Z,99.9
2022-09-28T10:39:01.186Z,99.9
2022-09-28T10:40:01.165Z,99.9
2022-09-28T10:41:01.627Z,99.9
2022-09-28T10:42:16.897Z,99.9
2022-09-28T10:43:01.355Z,99.9
2022-09-28T10:44:01.953Z,99.9
2022-09-28T10:45:01.115Z,99.9
2022-09-28T10:46:01.197Z,99.9
2022-09-28T10:47:00.861Z,99.9
2022-09-28T10:48:00.560Z,99.9
2022-09-28T10:49:00.270Z,99.9
2022-09-28T10:49:59.881Z,99.9
2022-09-28T10:51:01.910Z,99.9
2022-09-28T10:52:00.685Z,99.9
2022-09-28T10:53:00.328Z,99.9
2022-09-28T10:53:59.971Z,99.9
2022-09-28T10:54:59.624Z,99.9
2022-09-28T10:56:01.217Z,99.9
2022-09-28T10:57:00.814Z,99.9
2022-09-28T10:58:00.474Z,99.9
2022-09-28T10:59:00.108Z,99.9
2022-09-28T10:59:59.703Z,99.9
2022-09-28T11:01:02.018Z,99.9
2022-09-28T11:02:01.615Z,99.9
2022-09-28T11:03:01.931Z,99.9
2022-09-28T11:04:01.678Z,99.9
2022-09-28T11:05:01.057Z,99.9
2022-09-28T11:06:01.098Z,99.9
2022-09-28T11:07:01.522Z,99.9
2022-09-28T11:08:00.903Z,99.9
2022-09-28T11:09:01.603Z,99.9
2022-09-28T11:10:02.609Z,99.9
2022-09-28T11:11:01.508Z,99.9
2022-09-28T11:12:00.614Z,99.9
2022-09-28T11:13:00.206Z,99.9
2022-09-28T11:13:59.802Z,99.9
2022-09-28T11:15:01.564Z,99.9
2022-09-28T11:16:01.768Z,99.9
2022-09-28T11:17:00.959Z,99.9
2022-09-28T11:18:01.059Z,99.9
2022-09-28T11:19:01.269Z,99.9
2022-09-28T11:20:01.471Z,99.9
2022-09-28T11:21:01.084Z,99.9
2022-09-28T11:22:00.688Z,99.9
2022-09-28T11:23:00.284Z,99.9
2022-09-28T11:23:59.870Z,99.9
2022-09-28T11:25:02.725Z,99.9
2022-09-28T11:26:01.124Z,99.9
2022-09-28T11:27:00.831Z,99.9
2022-09-28T11:28:00.534Z,99.9
2022-09-28T11:29:00.135Z,99.9
2022-09-28T11:29:59.794Z,99.9
2022-09-28T11:31:01.639Z,99.9
2022-09-28T11:32:01.291Z,99.9
2022-09-28T11:33:02.067Z,99.9
2022-09-28T11:34:01.066Z,99.9
2022-09-28T11:35:01.121Z,99.9
2022-09-28T11:36:01.042Z,99.5
2022-09-28T11:37:01.912Z,99.9
2022-09-28T11:38:01.438Z,99.9
2022-09-28T11:39:01.108Z,99.9
2022-09-28T11:40:01.110Z,94.9
2022-09-28T11:41:01.194Z,95
2022-09-28T11:42:00.971Z,94.6
2022-09-28T11:43:01.186Z,94.2
2022-09-28T11:44:01.387Z,95.6
2022-09-28T11:45:01.403Z,95.8
2022-09-28T11:46:01.662Z,94.8
2022-09-28T11:47:01.259Z,94.8
2022-09-28T11:48:01.180Z,95.2
2022-09-28T11:49:01.063Z,96
2022-09-28T11:50:01.076Z,97
2022-09-28T11:51:01.074Z,97.4
2022-09-28T11:52:00.646Z,97.1
2022-09-28T11:53:00.366Z,97.8
2022-09-28T11:53:59.954Z,97.5
2022-09-28T11:54:59.555Z,97.8
2022-09-28T11:56:03.261Z,97.1
2022-09-28T11:57:00.803Z,97.1
2022-09-28T11:58:01.076Z,96.9
2022-09-28T11:59:01.132Z,97.4
2022-09-28T12:00:01.133Z,97.2
2022-09-28T12:01:01.176Z,96.8
2022-09-28T12:02:00.729Z,95.7
2022-09-28T12:03:01.723Z,95
2022-09-28T12:04:01.774Z,94.1
2022-09-28T12:05:01.486Z,93.3
2022-09-28T12:06:01.168Z,93
2022-09-28T12:07:00.660Z,93.4
2022-09-28T12:08:04.453Z,92.3
2022-09-28T12:09:01.605Z,91.3
2022-09-28T12:10:01.756Z,90.2
2022-09-28T12:11:01.493Z,83.2
2022-09-28T12:12:00.795Z,85.9
2022-09-28T12:13:07.795Z,90.3
2022-09-28T12:14:01.119Z,90.5
2022-09-28T12:15:01.044Z,90.4
2022-09-28T12:16:31.597Z,89.4
2022-09-28T12:17:06.224Z,89
2022-09-28T12:18:11.357Z,85.3
2022-09-28T12:19:02.868Z,85.3
2022-09-28T12:20:01.050Z,85.5
2022-09-28T12:21:05.023Z,84.6
2022-09-28T12:22:01.071Z,86.5
2022-09-28T12:23:15.540Z,88.2
2022-09-28T12:24:01.094Z,85.7
2022-09-28T12:25:01.052Z,86.1
2022-09-28T12:26:01.091Z,85.8
2022-09-28T12:27:00.689Z,86.8
2022-09-28T12:28:00.304Z,85.3
2022-09-28T12:29:00.043Z,85.4
2022-09-28T12:29:59.709Z,85.7
2022-09-28T12:31:01.462Z,86.9
2022-09-28T12:32:01.136Z,87
2022-09-28T12:33:01.449Z,88.8
2022-09-28T12:34:01.175Z,88
2022-09-28T12:35:01.856Z,88.5
2022-09-28T12:36:01.051Z,89.4
2022-09-28T12:37:00.655Z,89.3
2022-09-28T12:38:00.244Z,87.5
2022-09-28T12:39:18.023Z,88.2
2022-09-28T12:40:02.291Z,88
2022-09-28T12:41:01.873Z,87.5
2022-09-28T12:42:01.089Z,84.9
2022-09-28T12:43:01.128Z,86.5
2022-09-28T12:44:01.234Z,87.1
2022-09-28T12:45:01.145Z,87.1
2022-09-28T12:46:14.182Z,87.1
2022-09-28T12:47:01.264Z,87.2
2022-09-28T12:48:00.942Z,85.5
2022-09-28T12:50:37.461Z,78.4
2022-09-28T12:51:01.788Z,78.2
2022-09-28T12:52:00.801Z,77.4
2022-09-28T12:53:02.983Z,81
2022-09-28T12:54:01.171Z,76.5
2022-09-28T12:55:01.212Z,76.1
2022-09-28T12:56:01.090Z,75.3
2022-09-28T12:57:00.682Z,77
2022-09-28T12:58:00.285Z,77
2022-09-28T12:58:59.860Z,77.6
2022-09-28T13:00:01.575Z,76.6
2022-09-28T13:01:01.540Z,67.9
2022-09-28T13:02:01.563Z,64.2
2022-09-28T13:03:01.342Z,62.9
2022-09-28T13:04:02.025Z,58
2022-09-28T13:05:02.966Z,58.4
2022-09-28T13:06:01.148Z,59.5
2022-09-28T13:07:00.746Z,58.7
2022-09-28T13:08:00.450Z,58.3
2022-09-28T13:09:00.099Z,59.5
2022-09-28T13:09:59.833Z,58.9
2022-09-28T13:11:06.920Z,56.2
2022-09-28T13:12:01.091Z,58.2
2022-09-28T13:13:01.201Z,59.8
2022-09-28T13:14:01.100Z,58.7
2022-09-28T13:15:01.123Z,58.8
2022-09-28T13:16:01.243Z,64.9
2022-09-28T13:17:01.067Z,65.1
2022-09-28T13:18:01.148Z,62
2022-09-28T13:19:01.172Z,58.9
2022-09-28T13:20:01.359Z,57.3
2022-09-28T13:21:01.786Z,57.3
2022-09-28T13:22:01.161Z,59.2
2022-09-28T13:23:01.267Z,60.4
2022-09-28T13:24:20.792Z,54.7
2022-09-28T13:25:02.008Z,53.5
2022-09-28T13:26:01.219Z,51.9
2022-09-28T13:27:00.883Z,51.4